Time;durP1;ratioP1;P1;durP2;ratioP2;P2;SDS_P1;SDS_P2;PMS_P1;PMS_P2;Temp;Humidity;BMP_temperature;BMP_pressure;BME280_temperature;BME280_humidity;BME280_pressure;Samples;Min_cycle;Max_cycle;Signal;HPM_P1;HPM_P2
2021/09/18 00:00:09;;;;;;;;;15.50;15.50;;;;;17.22;69.92;101291.28;4923864;28;45521;-87
2021/09/18 00:02:34;;;;;;;;;18.00;18.00;;;;;17.16;69.83;101295.13;4922608;28;45438;-87
2021/09/18 00:05:00;;;;;;;;;20.25;18.75;;;;;17.17;69.49;101299.50;4923951;28;45347;-87
2021/09/18 00:21:07;;;;;;;;;;;;;;;;;;;;;
2021/09/18 00:23:58;;;;;;;;;;;;;;;;;;;;;
2021/09/18 00:26:26;;;;;;;;;19.75;18.25;;;;;16.98;70.58;101296.91;4871173;29;68808;-94
2021/09/18 00:28:51;;;;;;;;;18.75;18.25;;;;;16.94;70.28;101296.22;4837740;29;47052;-87
2021/09/18 00:39:32;;;;;;;;;;;;;;;;;;;;;
2021/09/18 00:43:18;;;;;;;;;;;;;;;;;;;;;
2021/09/18 00:49:16;;;;;;;;;19.25;18.75;;;;;16.87;70.34;101289.50;4755551;29;45659;-94
2021/09/18 01:08:00;;;;;;;;;22.50;20.00;;;;;16.67;70.82;101262.16;4206913;26;45878;-88
2021/09/18 01:10:27;;;;;;;;;17.25;15.25;;;;;16.63;70.76;101261.47;4922114;28;45547;-88
2021/09/18 01:12:59;;;;;;;;;20.50;17.75;;;;;16.70;70.91;101266.47;4917106;28;45519;-87
2021/09/18 01:15:25;;;;;;;;;16.75;16.75;;;;;16.63;70.49;101268.56;4910906;28;46112;-87
2021/09/18 01:17:51;;;;;;;;;23.25;19.25;;;;;16.63;70.81;101265.91;4902958;28;48132;-84
2021/09/18 01:20:16;;;;;;;;;15.50;15.50;;;;;16.58;70.30;101267.94;4903858;29;45173;-84
2021/09/18 01:23:37;;;;;;;;;;;;;;;;;;;;;
2021/09/18 01:43:31;;;;;;;;;21.75;21.25;;;;;16.41;71.13;101257.25;5242598;23;45867;-87
2021/09/18 01:58:01;;;;;;;;;22.00;19.25;;;;;16.38;71.06;101269.78;5743038;23;46906;-83
2021/09/18 02:01:03;;;;;;;;;;;;;;;;;;;;;
2021/09/18 02:03:33;;;;;;;;;18.75;18.50;;;;;16.32;71.17;101273.63;4870258;29;75222;-88
2021/09/18 02:05:59;;;;;;;;;24.50;19.25;;;;;16.37;71.10;101276.06;4865752;29;45778;-88
2021/09/18 02:08:25;;;;;;;;;22.50;19.00;;;;;16.29;70.79;101264.03;4877451;29;45260;-88
2021/09/18 02:10:52;;;;;;;;;19.00;18.50;;;;;16.34;71.22;101268.22;4865847;29;45359;-88
2021/09/18 02:13:18;;;;;;;;;20.75;20.00;;;;;16.28;71.10;101261.44;4870298;29;45448;-88
2021/09/18 02:15:44;;;;;;;;;17.75;17.75;;;;;16.29;71.19;101260.50;4872938;29;45636;-88
2021/09/18 02:18:10;;;;;;;;;17.75;14.75;;;;;16.28;71.32;101269.38;4881466;29;45245;-88
2021/09/18 02:20:37;;;;;;;;;22.75;20.25;;;;;16.26;71.61;101263.31;4881465;29;45385;-87
2021/09/18 02:23:04;;;;;;;;;20.75;18.75;;;;;16.31;71.18;101277.19;4873376;29;45610;-86
2021/09/18 02:25:29;;;;;;;;;19.25;17.25;;;;;16.26;71.26;101268.59;4865567;29;45512;-88
2021/09/18 02:27:56;;;;;;;;;23.25;20.25;;;;;16.24;71.37;101270.47;4875029;29;45674;-94
2021/09/18 02:30:27;;;;;;;;;24.25;20.75;;;;;16.26;71.71;101273.91;4863675;29;46167;-87
2021/09/18 02:32:54;;;;;;;;;22.75;19.50;;;;;16.18;71.51;101256.56;4865427;29;46292;-88
2021/09/18 02:35:22;;;;;;;;;21.00;18.75;;;;;16.23;71.77;101269.63;4877240;29;45412;-87
2021/09/18 02:37:49;;;;;;;;;17.50;17.25;;;;;16.18;71.71;101256.56;4873132;29;45444;-87
2021/09/18 02:40:16;;;;;;;;;17.75;16.75;;;;;16.23;71.79;101260.78;4881907;29;45218;-85
2021/09/18 02:42:44;;;;;;;;;21.25;19.25;;;;;16.20;71.79;101252.06;4865215;29;45574;-87
2021/09/18 02:45:10;;;;;;;;;17.25;15.00;;;;;16.25;71.99;101256.28;4848400;29;45678;-87
2021/09/18 02:47:36;;;;;;;;;20.25;18.75;;;;;16.21;71.67;101247.63;4871089;29;45461;-86
2021/09/18 02:50:03;;;;;;;;;22.75;19.00;;;;;16.27;71.87;101263.22;4883458;29;45336;-89
2021/09/18 02:52:29;;;;;;;;;21.00;17.75;;;;;16.24;71.72;101251.91;4884088;29;45318;-92
2021/09/18 02:54:54;;;;;;;;;21.50;19.75;;;;;16.27;71.98;101249.94;4883474;29;45206;-89
2021/09/18 02:57:19;;;;;;;;;21.25;19.75;;;;;16.26;72.08;101253.56;4871486;29;45162;-86
2021/09/18 02:59:45;;;;;;;;;19.50;17.00;;;;;16.30;71.83;101260.41;4877319;29;45655;-86
2021/09/18 03:02:10;;;;;;;;;18.00;17.50;;;;;16.28;71.98;101254.34;4864686;29;45609;-87
2021/09/18 03:04:35;;;;;;;;;20.25;18.00;;;;;16.31;72.00;101262.16;4865187;29;45222;-87
2021/09/18 03:07:02;;;;;;;;;21.00;19.00;;;;;16.33;72.13;101258.53;4868436;29;45364;-86
2021/09/18 03:09:27;;;;;;;;;19.00;19.00;;;;;16.34;72.31;101258.50;4876288;29;45418;-86
2021/09/18 03:11:53;;;;;;;;;18.25;17.25;;;;;16.38;72.50;101257.41;4864953;29;46053;-86
2021/09/18 03:14:18;;;;;;;;;23.00;18.00;;;;;16.44;72.26;101266.00;4865073;29;45390;-87
2021/09/18 03:16:44;;;;;;;;;19.00;18.50;;;;;16.41;72.46;101257.25;4864758;29;45454;-85
2021/09/18 03:19:12;;;;;;;;;21.75;18.00;;;;;16.42;72.46;101255.47;4883193;29;45540;-85
2021/09/18 03:21:37;;;;;;;;;17.25;17.25;;;;;16.42;72.32;101252.81;4883566;29;45327;-85
2021/09/18 03:24:03;;;;;;;;;19.50;18.50;;;;;16.50;72.12;101263.88;4858930;29;45270;-94
2021/09/18 03:27:04;;;;;;;;;;;;;;;;;;;;;
2021/09/18 03:35:42;;;;;;;;;18.25;18.25;;;;;16.53;72.25;101239.00;4872586;29;45675;-93
2021/09/18 03:41:42;;;;;;;;;20.75;20.75;;;;;16.49;72.24;101233.00;4783734;29;45430;-91
2021/09/18 03:44:08;;;;;;;;;25.00;20.25;;;;;16.51;72.14;101235.56;4790689;29;46249;-87
2021/09/18 03:46:59;;;;;;;;;21.75;20.75;;;;;16.47;71.42;101228.69;4776292;29;45432;-92
2021/09/18 03:50:09;;;;;;;;;;;;;;;;;;;;;
2021/09/18 04:10:40;;;;;;;;;17.00;15.50;;;;;16.30;71.68;101248.94;4702984;30;45323;-89
2021/09/18 04:13:06;;;;;;;;;19.00;17.75;;;;;16.28;71.77;101256.13;4701554;29;45296;-90
2021/09/18 04:15:31;;;;;;;;;16.75;14.25;;;;;16.25;72.09;101248.34;4856855;29;45239;-90
2021/09/18 04:17:58;;;;;;;;;21.25;20.00;;;;;16.24;71.91;101250.13;4849651;29;45530;-87
2021/09/18 04:20:25;;;;;;;;;17.50;17.50;;;;;16.28;72.16;101258.78;4848490;29;45465;-90
2021/09/18 04:22:50;;;;;;;;;16.75;16.75;;;;;16.23;72.35;101250.19;4853899;29;45789;-90
2021/09/18 04:25:34;;;;;;;;;22.00;19.50;;;;;16.22;72.28;101257.31;4867634;29;45441;-96
2021/09/18 05:06:50;;;;;;;;;16.75;16.75;;;;;16.18;72.24;101277.78;5648217;23;45151;-92
2021/09/18 05:09:09;;;;;;;;;18.50;17.25;;;;;16.12;72.35;101278.09;4898052;29;45560;-90
2021/09/18 05:11:34;;;;;;;;;19.75;17.25;;;;;16.13;72.71;101274.50;4895983;29;45495;-87
2021/09/18 05:13:59;;;;;;;;;19.50;18.25;;;;;16.14;72.24;101276.22;4899607;29;45689;-89
2021/09/18 05:16:25;;;;;;;;;21.75;18.00;;;;;16.13;72.58;101274.50;4889347;29;45321;-88
2021/09/18 05:18:51;;;;;;;;;20.25;18.75;;;;;16.14;72.60;101270.94;4887116;29;45317;-86
2021/09/18 05:37:02;;;;;;;;;;;;;;;;;;;;;
2021/09/18 05:42:55;;;;;;;;;15.25;15.25;;;;;16.24;72.90;101295.22;4869412;28;45272;-88
2021/09/18 05:45:20;;;;;;;;;17.25;17.25;;;;;16.27;72.76;101287.09;4944658;28;45438;-84
2021/09/18 05:47:46;;;;;;;;;15.50;15.25;;;;;16.29;72.90;101289.69;4960930;28;46113;-85
2021/09/18 05:50:12;;;;;;;;;17.25;16.75;;;;;16.30;72.92;101286.06;4943787;28;45194;-83
2021/09/18 05:52:37;;;;;;;;;16.75;15.25;;;;;16.34;72.74;101282.38;4955775;28;45420;-82
2021/09/18 05:55:04;;;;;;;;;14.50;12.50;;;;;16.39;72.80;101288.31;4941931;28;45293;-83
2021/09/18 05:57:30;;;;;;;;;18.00;17.75;;;;;16.42;72.38;101284.66;4941802;28;45466;-83
2021/09/18 05:59:55;;;;;;;;;17.50;15.00;;;;;16.46;72.55;101291.50;4941075;28;45434;-89
2021/09/18 06:02:22;;;;;;;;;15.00;13.75;;;;;16.49;72.83;101287.84;4925303;28;45541;-87
2021/09/18 06:04:51;;;;;;;;;15.75;14.00;;;;;16.55;71.88;101287.53;4959824;28;45406;-93
2021/09/18 06:07:19;;;;;;;;;17.50;17.50;;;;;16.61;72.00;101289.03;4960863;28;45221;-87
2021/09/18 06:09:45;;;;;;;;;11.25;11.25;;;;;16.75;71.09;101302.47;4960666;28;45348;-88
2021/09/18 06:12:10;;;;;;;;;11.75;11.25;;;;;16.79;71.00;101292.53;4961051;28;45330;-89
2021/09/18 06:14:36;;;;;;;;;11.75;10.75;;;;;16.92;70.52;101307.84;4939890;28;46120;-88
2021/09/18 06:17:01;;;;;;;;;14.50;11.25;;;;;16.94;70.47;101301.50;4923915;28;46516;-88
2021/09/18 06:19:27;;;;;;;;;13.25;12.25;;;;;16.98;70.36;101302.22;4953782;28;45417;-87
2021/09/18 06:21:53;;;;;;;;;13.50;11.50;;;;;17.09;70.73;101315.81;4951975;28;45438;-87
2021/09/18 06:24:18;;;;;;;;;12.75;12.25;;;;;17.17;70.66;101312.78;4943226;28;45414;-87
2021/09/18 06:26:45;;;;;;;;;11.25;11.00;;;;;17.29;70.61;101310.41;4941298;28;45308;-87
2021/09/18 06:29:11;;;;;;;;;15.00;13.50;;;;;17.37;68.77;101299.41;4941474;28;45209;-87
2021/09/18 06:31:36;;;;;;;;;10.00;8.75;;;;;17.42;69.57;101300.00;4947394;28;45238;-87
2021/09/18 06:34:02;;;;;;;;;12.75;11.50;;;;;17.54;69.17;101306.47;4960598;28;45465;-86
2021/09/18 06:36:27;;;;;;;;;14.50;12.25;;;;;17.53;68.69;101302.09;4945928;28;45445;-86
2021/09/18 06:38:53;;;;;;;;;13.25;11.75;;;;;17.52;68.90;101295.06;4956744;28;45387;-87
2021/09/18 06:41:18;;;;;;;;;11.25;11.25;;;;;17.54;69.42;101299.34;4941539;28;45237;-87
2021/09/18 06:43:54;;;;;;;;;;;;;;;;;;;;;
2021/09/18 06:46:22;;;;;;;;;13.50;10.25;;;;;17.81;68.91;101295.28;4940033;28;75422;-88
2021/09/18 06:48:53;;;;;;;;;9.50;9.50;;;;;17.81;68.18;101289.09;4941372;28;45333;-88
2021/09/18 06:51:20;;;;;;;;;11.25;10.50;;;;;17.84;68.63;101288.94;4942284;28;45323;-88
2021/09/18 06:53:46;;;;;;;;;14.00;13.25;;;;;17.91;68.21;101290.31;4942516;28;46158;-89
2021/09/18 06:56:11;;;;;;;;;15.50;13.25;;;;;18.01;68.17;101298.63;4923539;28;47396;-87
2021/09/18 06:58:36;;;;;;;;;14.50;12.25;;;;;18.06;68.16;101301.03;4924072;28;45294;-83
2021/09/18 07:01:02;;;;;;;;;11.25;10.50;;;;;18.13;67.75;101299.75;4936241;28;45336;-83
2021/09/18 07:03:33;;;;;;;;;12.50;12.25;;;;;18.15;67.37;101303.16;4935474;28;47148;-88
2021/09/18 07:06:01;;;;;;;;;12.25;10.50;;;;;18.09;66.38;101292.88;4923084;28;47874;-82
2021/09/18 07:08:27;;;;;;;;;13.25;13.00;;;;;18.07;67.21;101300.09;4941034;28;45462;-82
2021/09/18 07:10:53;;;;;;;;;12.25;12.25;;;;;18.02;66.23;101292.38;4940837;28;45316;-84
2021/09/18 07:13:19;;;;;;;;;10.75;10.50;;;;;17.97;66.45;101295.28;4946359;28;45473;-83
2021/09/18 07:15:44;;;;;;;;;11.00;10.00;;;;;17.97;66.88;101297.97;4946505;28;46552;-87
2021/09/18 07:18:09;;;;;;;;;11.50;11.50;;;;;17.93;66.98;101290.22;4963604;28;45309;-83
2021/09/18 07:20:35;;;;;;;;;11.50;11.50;;;;;17.86;66.88;101298.53;4933174;28;45264;-85
2021/09/18 07:23:01;;;;;;;;;10.25;8.75;;;;;17.77;66.27;101302.56;4947609;28;45164;-88
2021/09/18 07:25:26;;;;;;;;;10.25;10.25;;;;;17.68;66.78;101295.06;4959989;28;46440;-82
2021/09/18 07:27:54;;;;;;;;;15.00;12.75;;;;;17.63;67.17;101305.13;4954803;28;45208;-86
2021/09/18 07:30:20;;;;;;;;;13.75;11.75;;;;;17.57;67.25;101301.00;4944006;28;45347;-88
2021/09/18 07:32:46;;;;;;;;;11.50;10.75;;;;;17.55;67.31;101305.53;4943813;28;45411;-88
2021/09/18 07:35:12;;;;;;;;;15.00;11.75;;;;;17.48;66.68;101302.31;4926098;28;46927;-86
2021/09/18 07:37:38;;;;;;;;;14.25;12.00;;;;;17.44;67.19;101303.44;4926604;28;45444;-85
2021/09/18 07:40:10;;;;;;;;;12.50;10.25;;;;;17.41;67.51;101308.91;4944016;28;45437;-86
2021/09/18 07:42:35;;;;;;;;;18.00;15.25;;;;;17.42;67.42;101310.63;4943492;28;45302;-86
2021/09/18 07:45:01;;;;;;;;;11.25;11.25;;;;;17.40;66.79;101309.88;4943759;28;45392;-86
2021/09/18 07:47:27;;;;;;;;;13.25;12.25;;;;;17.41;67.42;101314.22;4957922;28;45361;-82
2021/09/18 07:49:52;;;;;;;;;15.25;12.75;;;;;17.41;67.59;101312.44;4933608;28;45648;-81
2021/09/18 07:52:18;;;;;;;;;13.75;12.75;;;;;17.44;67.85;101316.72;4950962;28;45414;-81
2021/09/18 07:54:43;;;;;;;;;13.75;12.75;;;;;17.53;67.36;101324.19;4952787;28;45582;-81
2021/09/18 07:57:09;;;;;;;;;12.75;12.75;;;;;17.57;66.35;101313.41;4953374;28;45844;-80
2021/09/18 07:59:35;;;;;;;;;12.75;11.00;;;;;17.63;67.31;101315.75;4948581;28;45385;-80
2021/09/18 08:02:00;;;;;;;;;10.75;10.00;;;;;17.70;67.80;101319.81;4958166;28;45216;-80
2021/09/18 08:04:26;;;;;;;;;9.75;9.75;;;;;17.76;67.68;101314.13;4962626;28;45433;-81
2021/09/18 08:06:52;;;;;;;;;13.50;13.50;;;;;17.85;67.69;101311.94;4940975;28;45852;-78
2021/09/18 08:09:17;;;;;;;;;16.25;12.75;;;;;17.97;67.43;101316.56;4927320;28;45236;-82
2021/09/18 08:11:42;;;;;;;;;12.50;11.75;;;;;18.06;67.17;101319.66;4943431;28;45478;-83
2021/09/18 08:14:08;;;;;;;;;13.25;11.50;;;;;18.11;66.89;101323.78;4944441;28;45519;-83
2021/09/18 08:16:33;;;;;;;;;12.75;10.50;;;;;18.18;67.15;101332.25;4948311;28;45470;-81
2021/09/18 08:18:59;;;;;;;;;17.50;13.75;;;;;18.18;66.74;101326.94;4950996;28;45428;-81
2021/09/18 08:21:24;;;;;;;;;13.75;13.75;;;;;18.20;66.34;101325.06;4936269;28;45619;-81
2021/09/18 08:23:50;;;;;;;;;11.25;10.75;;;;;18.19;66.09;101326.03;4929612;28;48089;-82
2021/09/18 08:26:15;;;;;;;;;11.50;10.75;;;;;18.22;66.37;101325.84;4957218;28;45335;-82
2021/09/18 08:28:40;;;;;;;;;15.75;13.50;;;;;18.25;65.53;101334.63;4962443;28;45432;-82
2021/09/18 08:31:06;;;;;;;;;14.50;11.50;;;;;18.27;66.34;101338.06;4962115;28;45508;-82
2021/09/18 08:33:34;;;;;;;;;11.00;10.25;;;;;18.36;66.23;101341.97;4956858;28;45409;-82
2021/09/18 08:35:59;;;;;;;;;11.00;9.50;;;;;18.35;65.46;101329.66;4962044;28;45598;-82
2021/09/18 08:38:26;;;;;;;;;12.50;11.25;;;;;18.48;65.98;101335.09;4951298;28;45838;-81
2021/09/18 08:40:53;;;;;;;;;13.75;12.00;;;;;18.48;63.93;101322.66;4955196;28;45307;-82
2021/09/18 08:43:20;;;;;;;;;11.00;11.00;;;;;18.49;64.89;101321.72;4962171;28;45303;-81
2021/09/18 08:45:47;;;;;;;;;11.25;11.25;;;;;18.53;64.40;101319.72;4961912;28;45761;-81
2021/09/18 08:48:14;;;;;;;;;13.25;11.25;;;;;18.57;64.23;101329.25;4962331;28;45333;-81
2021/09/18 08:50:40;;;;;;;;;9.75;7.50;;;;;18.54;65.05;101321.44;4958806;28;45309;-81
2021/09/18 08:53:06;;;;;;;;;13.50;11.50;;;;;18.58;65.41;101315.00;4948976;28;45665;-81
2021/09/18 08:55:32;;;;;;;;;15.50;12.75;;;;;18.64;63.88;101314.63;4945110;28;45936;-81
2021/09/18 08:57:57;;;;;;;;;16.25;15.50;;;;;18.71;64.19;101316.94;4954804;28;45560;-81
2021/09/18 09:00:29;;;;;;;;;16.00;14.00;;;;;18.78;63.96;101320.97;4955099;28;45518;-82
2021/09/18 09:02:56;;;;;;;;;15.00;12.00;;;;;18.76;63.88;101314.88;4942764;28;46334;-82
2021/09/18 09:05:28;;;;;;;;;14.25;14.25;;;;;18.79;64.17;101317.38;4943208;28;45334;-82
2021/09/18 09:08:12;;;;;;;;;9.50;9.50;;;;;18.88;64.16;101322.13;4942786;28;45479;-81
2021/09/18 09:10:42;;;;;;;;;12.00;11.25;;;;;18.89;64.27;101314.97;4951512;28;45543;-83
2021/09/18 09:13:13;;;;;;;;;13.50;13.00;;;;;18.94;64.10;101306.75;4950645;28;45467;-82
2021/09/18 09:15:39;;;;;;;;;10.50;10.25;;;;;19.03;63.71;101319.50;4941956;28;45440;-82
2021/09/18 09:18:14;;;;;;;;;8.25;8.25;;;;;19.11;64.06;101311.06;4942877;28;45437;-82
2021/09/18 09:20:39;;;;;;;;;13.25;10.00;;;;;19.15;63.62;101306.38;4942060;28;45349;-81
2021/09/18 09:23:14;;;;;;;;;12.00;9.75;;;;;19.23;63.75;101306.81;4941899;28;46565;-81
2021/09/18 09:25:39;;;;;;;;;13.25;11.75;;;;;19.26;62.90;101301.28;4941970;28;45599;-82
2021/09/18 09:28:22;;;;;;;;;15.75;12.75;;;;;19.33;62.46;101299.13;4945543;28;45221;-80
2021/09/18 09:30:48;;;;;;;;;12.00;12.00;;;;;19.41;62.43;101309.31;4956159;28;45405;-81
2021/09/18 09:33:14;;;;;;;;;11.50;10.50;;;;;19.40;61.64;101304.91;4954984;28;45565;-82
2021/09/18 09:35:42;;;;;;;;;12.75;11.25;;;;;19.41;62.74;101303.97;4941305;28;46006;-81
2021/09/18 09:38:07;;;;;;;;;12.00;12.00;;;;;19.50;62.75;101311.41;4954051;28;45631;-79
2021/09/18 09:40:40;;;;;;;;;12.50;9.25;;;;;19.55;62.52;101308.44;4956808;28;45243;-80
2021/09/18 09:43:08;;;;;;;;;9.00;9.00;;;;;19.55;61.97;101303.97;4960596;28;45668;-79
2021/09/18 09:45:35;;;;;;;;;12.75;11.00;;;;;19.60;62.22;101301.03;4943390;28;45361;-80
2021/09/18 09:48:13;;;;;;;;;12.25;9.75;;;;;19.63;62.32;101299.97;4943600;28;45941;-79
2021/09/18 09:50:42;;;;;;;;;10.50;10.50;;;;;19.70;62.44;101300.44;4941395;28;45393;-79
2021/09/18 09:53:23;;;;;;;;;14.75;9.75;;;;;19.73;61.48;101298.41;4941450;28;45308;-80
2021/09/18 09:55:49;;;;;;;;;15.00;12.00;;;;;19.76;60.07;101306.22;4941803;28;45578;-79
2021/09/18 09:58:15;;;;;;;;;13.25;11.50;;;;;19.79;60.46;101299.84;4944420;28;45469;-79
2021/09/18 10:00:51;;;;;;;;;11.25;10.00;;;;;19.79;61.25;101295.38;4952360;28;45311;-79
2021/09/18 10:03:25;;;;;;;;;9.50;9.50;;;;;19.85;61.53;101307.44;4950119;28;45688;-80
2021/09/18 10:05:53;;;;;;;;;10.25;9.25;;;;;19.89;61.30;101303.66;4941590;28;45327;-82
2021/09/18 10:08:24;;;;;;;;;10.00;10.00;;;;;19.89;61.50;101292.13;4942020;28;45386;-82
2021/09/18 10:10:51;;;;;;;;;10.50;10.50;;;;;19.94;61.51;101308.69;4948411;28;45658;-82
2021/09/18 10:13:22;;;;;;;;;12.25;9.75;;;;;19.97;61.28;101295.16;4933615;28;46473;-82
2021/09/18 10:15:50;;;;;;;;;12.00;9.00;;;;;20.04;60.51;101292.94;4941366;28;45502;-82
2021/09/18 10:18:15;;;;;;;;;6.75;6.75;;;;;20.07;61.21;101302.56;4941889;28;45546;-82
2021/09/18 10:23:18;;;;;;;;;11.50;10.00;;;;;20.13;60.66;101294.19;4941301;28;45272;-82
2021/09/18 10:25:49;;;;;;;;;8.25;8.25;;;;;20.19;60.76;101296.47;4941481;28;45300;-82
2021/09/18 10:28:20;;;;;;;;;12.25;11.75;;;;;20.25;60.49;101289.84;4941582;28;45418;-82
2021/09/18 10:30:52;;;;;;;;;13.00;10.25;;;;;20.31;60.55;101293.94;4926257;28;46427;-82
2021/09/18 10:33:35;;;;;;;;;8.50;7.25;;;;;20.31;60.43;101283.25;4954022;28;45296;-82
2021/09/18 10:36:09;;;;;;;;;8.75;7.00;;;;;20.35;60.24;101276.75;4941103;28;45370;-82
2021/09/18 10:38:38;;;;;;;;;8.75;8.25;;;;;20.39;60.59;101280.94;4941358;28;45395;-82
2021/09/18 10:41:03;;;;;;;;;4.25;4.25;;;;;20.49;58.30;101280.31;4941487;28;45587;-82
2021/09/18 10:43:33;;;;;;;;;8.00;8.00;;;;;20.54;59.35;101279.06;4953851;28;46368;-82
2021/09/18 10:46:00;;;;;;;;;8.00;8.00;;;;;20.56;59.57;101271.81;4949369;28;45692;-82
2021/09/18 10:48:39;;;;;;;;;7.75;7.00;;;;;20.60;58.84;101266.22;4964038;28;45183;-82
2021/09/18 10:51:05;;;;;;;;;9.50;8.00;;;;;20.62;58.29;101253.66;4954768;28;45298;-82
2021/09/18 10:54:03;;;;;;;;;10.00;8.75;;;;;20.71;59.15;101255.69;4944324;28;45692;-82
2021/09/18 10:56:55;;;;;;;;;7.00;7.00;;;;;20.69;59.19;101254.97;4944627;28;45713;-82
2021/09/18 10:59:53;;;;;;;;;7.00;7.00;;;;;20.71;58.91;101247.69;4950347;28;45449;-82
2021/09/18 11:02:30;;;;;;;;;6.75;6.50;;;;;20.75;58.84;101242.97;4911630;28;45457;-82
2021/09/18 11:04:56;;;;;;;;;8.50;8.50;;;;;20.74;58.73;101247.44;4944285;28;45482;-82
2021/09/18 11:07:49;;;;;;;;;7.25;7.25;;;;;20.81;59.04;101247.91;4944252;28;45536;-82
2021/09/18 11:10:36;;;;;;;;;8.50;6.00;;;;;20.77;59.30;101235.69;4937962;28;45391;-82
2021/09/18 11:13:07;;;;;;;;;10.75;8.50;;;;;20.84;58.66;101247.69;4951665;28;45586;-82
2021/09/18 11:15:40;;;;;;;;;7.25;7.00;;;;;20.85;58.70;101248.53;4954767;28;46065;-83
2021/09/18 11:18:35;;;;;;;;;7.50;7.50;;;;;20.88;58.72;101254.53;4957155;28;45403;-82
2021/09/18 11:21:11;;;;;;;;;8.00;8.00;;;;;20.90;58.50;101239.25;4943335;28;45416;-82
2021/09/18 11:24:15;;;;;;;;;9.75;9.75;;;;;20.92;58.92;101239.13;4944212;28;45560;-82
2021/09/18 11:26:52;;;;;;;;;7.00;7.00;;;;;20.94;58.43;101236.38;4955340;28;46494;-82
2021/09/18 11:29:28;;;;;;;;;6.00;6.00;;;;;20.95;58.55;101232.72;4942272;28;45450;-82
2021/09/18 11:32:06;;;;;;;;;9.00;8.75;;;;;20.91;58.10;101232.94;4926614;28;45382;-82
2021/09/18 11:34:37;;;;;;;;;7.00;6.00;;;;;20.91;57.99;101227.59;4944243;28;45274;-82
2021/09/18 11:37:08;;;;;;;;;7.00;6.00;;;;;20.95;57.75;101227.38;4943688;28;46690;-82
2021/09/18 11:39:52;;;;;;;;;9.25;9.00;;;;;20.99;57.21;101218.22;4944118;28;45457;-82
2021/09/18 11:42:31;;;;;;;;;6.25;6.25;;;;;21.04;58.00;101225.94;4955182;28;45245;-82
2021/09/18 11:45:19;;;;;;;;;6.00;6.00;;;;;21.01;57.93;101216.31;4948514;28;45429;-83
2021/09/18 11:47:46;;;;;;;;;8.50;5.75;;;;;21.00;57.61;101206.53;4943095;28;45462;-82
2021/09/18 11:50:30;;;;;;;;;7.25;5.25;;;;;21.01;57.81;101210.97;4926387;28;45462;-82
2021/09/18 11:53:05;;;;;;;;;6.00;6.00;;;;;21.01;57.83;101211.81;4943885;28;45211;-82
2021/09/18 11:55:37;;;;;;;;;8.50;5.75;;;;;21.04;57.81;101208.06;4943570;28;45357;-83
2021/09/18 11:58:34;;;;;;;;;23.25;20.25;;;;;21.11;57.81;101213.84;4942889;28;46438;-83
2021/09/18 12:01:05;;;;;;;;;8.00;8.00;;;;;21.15;57.63;101215.34;4960549;28;45575;-83
2021/09/18 12:03:40;;;;;;;;;4.25;4.25;;;;;21.17;57.49;101207.19;4963145;28;45478;-83
2021/09/18 12:06:12;;;;;;;;;8.00;8.00;;;;;21.24;57.38;101217.34;4962792;28;45651;-83
2021/09/18 12:08:39;;;;;;;;;7.50;7.00;;;;;21.30;57.36;101215.19;4962817;28;45462;-83
2021/09/18 12:11:08;;;;;;;;;6.50;6.50;;;;;21.37;56.81;101213.78;4946726;28;45466;-83
2021/09/18 12:13:44;;;;;;;;;8.75;7.75;;;;;21.41;57.15;101211.78;4949284;28;45406;-83
2021/09/18 12:16:11;;;;;;;;;6.50;6.50;;;;;21.42;56.94;101197.41;4948691;28;45405;-83
2021/09/18 12:18:43;;;;;;;;;6.00;5.25;;;;;21.54;56.58;101211.72;4943392;28;45700;-83
2021/09/18 12:21:15;;;;;;;;;4.75;4.00;;;;;21.56;56.36;101210.63;4942490;28;45681;-82
2021/09/18 12:24:10;;;;;;;;;5.25;5.25;;;;;21.65;56.95;101208.28;4951358;28;45299;-83
2021/09/18 12:26:40;;;;;;;;;4.00;4.00;;;;;21.65;56.11;101198.44;4948732;28;45495;-83
2021/09/18 12:29:14;;;;;;;;;6.00;4.75;;;;;21.71;56.38;101202.47;4959786;28;45710;-83
2021/09/18 12:31:42;;;;;;;;;7.00;7.00;;;;;21.76;56.24;101200.31;4942983;28;45241;-82
2021/09/18 12:34:09;;;;;;;;;7.25;6.00;;;;;21.79;56.61;101194.72;4943072;28;45500;-83
2021/09/18 12:36:35;;;;;;;;;7.00;6.50;;;;;21.74;56.56;101202.25;4957329;28;45738;-83
2021/09/18 12:39:01;;;;;;;;;5.00;5.00;;;;;21.72;56.54;101196.16;4962297;28;45650;-83
2021/09/18 12:41:28;;;;;;;;;7.25;7.00;;;;;21.68;55.99;101186.66;4962247;28;45359;-83
2021/09/18 12:44:02;;;;;;;;;6.50;6.50;;;;;21.69;57.06;101181.19;4962205;28;45426;-83
2021/09/18 12:46:30;;;;;;;;;5.75;5.75;;;;;21.74;56.44;101186.19;4960170;28;45544;-83
2021/09/18 12:49:03;;;;;;;;;6.75;6.75;;;;;21.74;56.66;101180.84;4961403;28;45526;-84
2021/09/18 12:51:31;;;;;;;;;6.00;6.00;;;;;21.77;56.81;101180.63;4961896;28;45469;-83
2021/09/18 12:53:58;;;;;;;;;5.25;5.25;;;;;21.77;56.62;101182.44;4962212;28;45191;-83
2021/09/18 12:56:32;;;;;;;;;6.75;6.50;;;;;21.81;56.60;101187.44;4962256;28;45203;-83
2021/09/18 12:59:11;;;;;;;;;6.75;6.75;;;;;21.77;56.31;101172.59;4953937;28;45568;-83
2021/09/18 13:01:44;;;;;;;;;5.00;5.00;;;;;21.79;57.05;101178.69;4950771;28;45323;-83
2021/09/18 13:04:18;;;;;;;;;8.75;6.75;;;;;21.79;56.80;101170.66;4962047;28;45234;-83
2021/09/18 13:07:08;;;;;;;;;6.50;6.50;;;;;21.83;56.94;101157.88;4962017;28;45219;-83
2021/09/18 13:09:37;;;;;;;;;10.25;9.25;;;;;21.86;56.57;101170.19;4936294;28;46512;-83
2021/09/18 13:12:09;;;;;;;;;7.50;7.50;;;;;21.86;55.94;101167.50;4950196;28;45491;-83
2021/09/18 13:14:39;;;;;;;;;8.00;6.25;;;;;21.79;56.02;101157.28;4944327;28;45529;-83
2021/09/18 13:17:07;;;;;;;;;6.00;4.00;;;;;21.83;56.13;101159.72;4961823;28;45672;-83
2021/09/18 13:19:52;;;;;;;;;6.25;5.75;;;;;21.84;55.79;101164.09;4958413;28;45441;-83
2021/09/18 13:22:25;;;;;;;;;6.00;6.00;;;;;21.83;56.22;101162.41;4942479;28;45317;-83
2021/09/18 13:24:54;;;;;;;;;5.25;5.25;;;;;21.88;55.66;101155.75;4944194;28;45343;-83
2021/09/18 13:27:21;;;;;;;;;5.75;5.75;;;;;21.90;56.08;101151.13;4957473;28;45508;-83
2021/09/18 13:29:47;;;;;;;;;4.25;4.25;;;;;21.94;56.49;101158.94;4937592;28;47046;-83
2021/09/18 13:32:13;;;;;;;;;6.50;6.25;;;;;21.90;56.08;101150.31;4953238;28;45242;-83
2021/09/18 13:34:38;;;;;;;;;7.25;6.50;;;;;21.94;55.67;101153.59;4956773;28;45303;-83
2021/09/18 13:37:04;;;;;;;;;8.00;6.00;;;;;21.97;55.85;101150.69;4942165;28;45409;-83
2021/09/18 13:39:30;;;;;;;;;4.25;4.25;;;;;21.99;55.76;101154.97;4947590;28;45450;-83
2021/09/18 13:41:57;;;;;;;;;7.50;7.50;;;;;21.94;56.07;101151.78;4961289;28;45485;-83
2021/09/18 13:44:23;;;;;;;;;6.00;5.25;;;;;21.94;55.44;101149.09;4961240;28;45263;-83
2021/09/18 13:46:49;;;;;;;;;6.25;6.25;;;;;21.91;55.67;101154.69;4947695;28;45524;-83
2021/09/18 13:49:14;;;;;;;;;8.00;7.00;;;;;21.87;55.51;101150.53;4941415;28;48099;-83
2021/09/18 13:51:41;;;;;;;;;5.50;5.50;;;;;21.86;55.93;101154.13;4950682;28;45316;-83
2021/09/18 13:54:06;;;;;;;;;7.50;7.50;;;;;21.86;55.65;101154.13;4942136;28;45355;-83
2021/09/18 13:56:31;;;;;;;;;6.75;6.00;;;;;21.88;55.50;101146.88;4941647;28;45160;-83
2021/09/18 13:58:57;;;;;;;;;7.00;7.00;;;;;21.95;55.74;101155.31;4944528;28;45471;-83
2021/09/18 14:01:22;;;;;;;;;6.25;5.25;;;;;21.92;55.36;101141.19;4941579;28;45462;-83
2021/09/18 14:03:48;;;;;;;;;6.75;6.00;;;;;21.99;55.33;101152.28;4941677;28;45539;-83
2021/09/18 14:06:13;;;;;;;;;6.00;6.00;;;;;21.96;55.46;101138.28;4942473;28;45149;-83
2021/09/18 14:08:41;;;;;;;;;5.50;5.50;;;;;21.94;56.25;101140.22;4941475;28;45371;-83
2021/09/18 14:11:08;;;;;;;;;1.00;1.00;;;;;21.90;55.47;101136.94;4941942;28;45425;-84
2021/09/18 14:13:34;;;;;;;;;7.00;7.00;;;;;21.86;55.73;101132.72;4941823;28;45363;-83
2021/09/18 14:16:00;;;;;;;;;6.00;6.00;;;;;21.86;55.32;101133.63;4941286;28;45347;-83
2021/09/18 14:18:25;;;;;;;;;6.75;6.75;;;;;21.86;55.40;101130.06;4931030;28;48198;-83
2021/09/18 14:20:50;;;;;;;;;6.00;6.00;;;;;21.86;55.80;101124.69;4959672;28;45298;-83